South Worthington, Massachusetts
Current Conditions -  °F | °C
As of 4:53 PM on Monday 24 Nov 2014 (Local Time) from KBAF Reporting Station
Overcast Overcast  
Wind Chill: 62°   Ceiling: 800
Heat Index: 62°   Visibility: 10mi
Dew Point: 58°   Wind: 15mph
Humidity: 86%   Direction: 190°S
Pressure: 29.57"   Gusts: 23mph
Location:  42.3047°N, 72.879°W
Report Text: KBAF 242153Z 19013G20KT 10SM BKN008 OVC012 17/14 A2957 RMK AO2 SLP016 T01670144
Loading
Personal Weather Stations






























Interactive Weather Map New forecast layout! Learn more

10-Day Weather Forecast

Advertisements
Track Severe Weather on mobile